Home > Products > Valid Products > TAF

000
FTUS45 KPSR 200900 AAA
TAFPHX
TAF AMD
KPHX 200907Z 2009/2106 10004KT P6SM FEW140
     FM202300 27004KT P6SM SKC
     FM210300 10004KT P6SM SKC=



000
FTUS45 KPSR 200500
TAFPHX
TAF
KPHX 200520Z 2006/2106 10004KT P6SM SKC
     FM202300 27004KT P6SM SKC
     FM210300 10004KT P6SM SKC=



000
FTUS45 KPSR 200500
TAFIWA
TAF
KIWA 200520Z 2006/2106 12004KT P6SM SKC
     FM202200 27004KT P6SM SKC
     FM210300 11004KT P6SM SKC
      AMD LTD TO CLD VIS AND WIND TIL 201300=



000
FTUS45 KPSR 200500
TAFIPL
TAF
KIPL 200520Z 2006/2106 VRB04KT P6SM SKC=



000
FTUS45 KPSR 200500
TAFBLH
TAF
KBLH 200520Z 2006/2106 VRB03KT P6SM SKC=



000
FTUS45 KPSR 200500
TAFIWA
TAF
KIWA 200520Z 2006/2106 12004KT P6SM SKC
     FM202200 27004KT P6SM SKC
     FM210300 11004KT P6SM SKC
      AMD LTD TO CLD VIS AND WIND TIL 201300=



000
FTUS45 KPSR 200300 AAE
TAFPHX
TAF AMD
KPHX 200329Z 2003/2024 23006KT P6SM SCT070 BKN090 BKN200
     FM200400 10005KT P6SM SCT120=



000
FTUS45 KPSR 200200 AAD
TAFPHX
TAF AMD
KPHX 200243Z 2003/2024 VRB06KT P6SM SCT070 BKN090 BKN200
     FM200600 10005KT P6SM SCT120=



000
FTUS45 KPSR 200200 AAC
TAFIWA
TAF AMD
KIWA 200208Z 2002/2024 11012KT P6SM BKN100 BKN200
     FM200600 11005KT P6SM FEW120
      AMD LTD TO CLD VIS AND WIND 2003/2013=



000
FTUS45 KPSR 200200 AAC
TAFPHX
TAF AMD
KPHX 200207Z 2002/2024 11015KT P6SM TSRA BKN080CB BKN250
     FM200300 10008KT P6SM SCT120 BKN200
     FM200600 10005KT P6SM SKC=



000
FTUS45 KPSR 200100 AAB
TAFIWA
TAF AMD
KIWA 200113Z 2001/2024 12015KT 3SM BLDU BKN100 BKN200
     FM200200 11008KT P6SM FEW080 SCT100 BKN200
     FM200600 11005KT P6SM SKC
      AMD LTD TO CLD VIS AND WIND 2003/2013=



000
FTUS45 KPSR 200100 AAB
TAFIWA
TAF AMD
KIWA 200113Z 2001/2024 12015KT 3SM BLDU BKN100 BKN200
     FM200200 11008KT P6SM FEW080 SCT100 BKN200
     FM200600 11005KT P6SM SKC
      AMD LTD TO CLD VIS AND WIND 2003/2013=



000
FTUS45 KPSR 200000 AAB
TAFPHX
TAF AMD
KPHX 200055Z 2001/2024 09020G30KT P6SM VCTS BKN080CB BKN250
     FM200300 10008KT P6SM SCT120 BKN200
     FM200600 10005KT P6SM SKC=



000
FTUS45 KPSR 200000 AAA
TAFIWA
TAF AMD
KIWA 200042Z 2001/2024 12015KT 1/2SM BLDU FEW080 SCT100 BKN200
     FM200100 11008KT P6SM FEW080 SCT100 BKN200
     FM200600 11005KT P6SM SKC
      AMD LTD TO CLD VIS AND WIND 2003/2013=



000
FTUS45 KPSR 200000 AAA
TAFIWA
TAF AMD
KIWA 200042Z 2001/2024 12015KT 1/2SM BLDU FEW080 SCT100 BKN200
     FM200100 11008KT P6SM FEW080 SCT100 BKN200
     FM200600 11005KT P6SM SKC
      AMD LTD TO CLD VIS AND WIND 2003/2013=



000
FTUS45 KPSR 200000 AAA
TAFPHX
TAF AMD
KPHX 200030Z 2001/2024 VRB04KT P6SM FEW120 BKN200
     FM200100 09010KT P6SM FEW100 BKN250
     FM200600 10005KT P6SM SKC=



000
FTUS45 KPSR 192300
TAFBLH
TAF
KBLH 192323Z 2000/2024 VRB03KT P6SM SKC=



000
FTUS45 KPSR 192300
TAFIPL
TAF
KIPL 192323Z 2000/2024 25005KT P6SM SKC=



000
FTUS45 KPSR 192300
TAFPHX
TAF
KPHX 192323Z 2000/2024 VRB04KT P6SM FEW120 BKN200
     FM200600 10005KT P6SM SKC=



000
FTUS45 KPSR 192300
TAFIWA
TAF
KIWA 192323Z 2000/2024 VRB04KT P6SM FEW080 SCT100 BKN200
     FM200600 11005KT P6SM SKC
      AMD LTD TO CLD VIS AND WIND 2003/2013=



000
FTUS45 KPSR 192300
TAFIWA
TAF
KIWA 192323Z 2000/2024 VRB04KT P6SM FEW080 SCT100 BKN200
     FM200600 11005KT P6SM SKC
      AMD LTD TO CLD VIS AND WIND 2003/2013=



000
FTUS45 KPSR 192300
TAFPHX
TAF
KPHX 192323Z 2000/2024 VRB04KT P6SM FEW120 BKN200
     FM200600 10005KT P6SM SKC=



000
FTUS45 KPSR 192300
TAFIPL
TAF
KIPL 192323Z 2000/2024 25005KT P6SM SKC=



000
FTUS45 KPSR 192300
TAFBLH
TAF
KBLH 192323Z 2000/2024 VRB03KT P6SM SKC=



000
FTUS45 KPSR 192300
TAFIWA
TAF
KIWA 192323Z 2000/2024 VRB04KT P6SM FEW080 SCT100 BKN200
     FM200600 11005KT P6SM SKC
      AMD LTD TO CLD VIS AND WIND 2003/2013=



000
FTUS45 KPSR 192300
TAFIWA
TAF
KIWA 192323Z 2000/2024 VRB04KT P6SM FEW080 SCT100 BKN200
     FM200600 11005KT P6SM SKC
      AMD LTD TO CLD VIS AND WIND 2003/2013=



000
FTUS45 KPSR 192100 AAB
TAFIWA
TAF AMD
KIWA 192134Z 1922/2018 29005KT P6SM VCTS FEW090CB SCT120 SCT200
      TEMPO 1922/1923 09015G30KT FEW080CB BKN120
     FM200400 11005KT P6SM FEW120 SCT200=



000
FTUS45 KPSR 192100 AAA
TAFPHX
TAF AMD
KPHX 192104Z 1921/2018 13007KT P6SM SCT120 SCT200
     FM200000 27005KT P6SM FEW120 SCT200
     FM200600 10005KT P6SM FEW120 SCT200=



000
FTUS45 KPSR 192000 AAA
TAFIWA
TAF AMD
KIWA 192045Z 1921/2018 29006KT P6SM VCTS FEW090CB SCT120 SCT200
     FM200400 11005KT P6SM FEW120 SCT200=



000
FTUS45 KPSR 192000 AAA
TAFIWA
TAF AMD
KIWA 192045Z 1921/2018 29006KT P6SM VCTS FEW090CB SCT120 SCT200
     FM200400 11005KT P6SM FEW120 SCT200=



000
FTUS45 KPSR 191700
TAFBLH
TAF
KBLH 191720Z 1918/2018 VRB03KT P6SM SKC=



000
FTUS45 KPSR 191700
TAFIPL
TAF
KIPL 191720Z 1918/2018 VRB04KT P6SM SKC
     FM192200 25005KT P6SM SKC=



000
FTUS45 KPSR 191700
TAFIWA
TAF
KIWA 191720Z 1918/2018 16006KT P6SM SCT120 SCT200
     FM192100 28007KT P6SM FEW120 SCT200
     FM200400 11005KT P6SM SKC=



000
FTUS45 KPSR 191700
TAFIWA
TAF
KIWA 191720Z 1918/2018 16006KT P6SM SCT120 SCT200
     FM192100 28007KT P6SM FEW120 SCT200
     FM200400 11005KT P6SM SKC=



000
FTUS45 KPSR 191700
TAFPHX
TAF
KPHX 191720Z 1918/2018 13005KT P6SM FEW120 SCT200
     FM192100 27005KT P6SM FEW120
     FM200600 10005KT P6SM SKC=



000
FTUS45 KPSR 191500 AAA
TAFPHX
TAF AMD
KPHX 191506Z 1915/2012 12005KT P6SM SCT120 BKN200
     FM191800 17005KT P6SM SCT120 SCT200
     FM192200 26005KT P6SM FEW120
     FM200600 10005KT P6SM SKC=



000
FTUS45 KPSR 191100
TAFBLH
TAF
KBLH 191120Z 1912/2012 VRB03KT P6SM SKC=



000
FTUS45 KPSR 191100
TAFIPL
TAF
KIPL 191120Z 1912/2012 27004KT P6SM SKC=



000
FTUS45 KPSR 191100
TAFIWA
TAF
KIWA 191120Z 1912/2012 11006KT P6SM FEW120 SCT200
     FM192100 28007KT P6SM FEW120 SCT200
     FM200400 11005KT P6SM SKC
      AMD LTD TO CLD VIS AND WIND TIL 191300=



000
FTUS45 KPSR 191100
TAFPHX
TAF
KPHX 191120Z 1912/2012 10005KT P6SM FEW120 SCT200
     FM192200 26005KT P6SM FEW120
     FM200600 10005KT P6SM SKC=



000
FTUS45 KPSR 191100
TAFIWA
TAF
KIWA 191120Z 1912/2012 11006KT P6SM FEW120 SCT200
     FM192100 28007KT P6SM FEW120 SCT200
     FM200400 11005KT P6SM SKC
      AMD LTD TO CLD VIS AND WIND TIL 191300=



000
FTUS45 KPSR 190800 AAA
TAFPHX
TAF AMD
KPHX 190854Z 1909/2006 11005KT P6SM FEW120 SCT200
     FM192200 26005KT P6SM FEW120=



000
FTUS45 KPSR 190500
TAFPHX
TAF
KPHX 190523Z 1906/2006 26004KT P6SM SCT150 BKN200
     FM190700 11005KT P6SM SCT150 BKN200
     FM192200 26005KT P6SM FEW120 SCT200=



000
FTUS45 KPSR 190500
TAFIPL
TAF
KIPL 190523Z 1906/2006 VRB04KT P6SM SKC=



000
FTUS45 KPSR 190500
TAFIWA
TAF
KIWA 190523Z 1906/2006 12006KT P6SM SCT150 BKN200
     FM192100 28007KT P6SM FEW120 SCT200
     FM200500 11005KT P6SM SKC
      AMD LTD TO CLD VIS AND WIND TIL 191300=



000
FTUS45 KPSR 190500
TAFBLH
TAF
KBLH 190523Z 1906/2006 VRB03KT P6SM SKC=



000
FTUS45 KPSR 190500
TAFIWA
TAF
KIWA 190523Z 1906/2006 12006KT P6SM SCT150 BKN200
     FM192100 28007KT P6SM FEW120 SCT200
     FM200500 11005KT P6SM SKC
      AMD LTD TO CLD VIS AND WIND TIL 191300=



000
FTUS45 KPSR 190200 AAA
TAFPHX
TAF AMD
KPHX 190255Z 1903/1924 26004KT P6SM FEW120 BKN200
     FM190700 11005KT P6SM FEW250
     FM192200 23005KT P6SM FEW120 SCT200=



000
FTUS45 KPSR 182300
TAFIWA
TAF
KIWA 182320Z 1900/1924 28005KT P6SM FEW120 BKN200
     FM190400 12006KT P6SM FEW250
     FM192100 28007KT P6SM FEW120 SCT200
      AMD LTD TO CLD VIS AND WIND 1903/1913=



000
FTUS45 KPSR 182300
TAFBLH
TAF
KBLH 182320Z 1900/1924 VRB03KT P6SM FEW120 SCT200
     FM190600 VRB03KT P6SM SKC=



000
FTUS45 KPSR 182300
TAFPHX
TAF
KPHX 182320Z 1900/1924 26004KT P6SM FEW120 BKN200
     FM190700 11005KT P6SM FEW250
     FM192200 23005KT P6SM FEW120 SCT200=



000
FTUS45 KPSR 182300
TAFIPL
TAF
KIPL 182320Z 1900/1924 27004KT P6SM SKC=



000
FTUS45 KPSR 182000 AAA
TAFPHX
TAF AMD
KPHX 182050Z 1821/1918 VRB04KT P6SM FEW100 SCT150 SCT200
     FM190000 30006KT P6SM FEW100 SCT150 SCT200
     FM190700 12004KT P6SM FEW200=



000
FTUS45 KPSR 181700
TAFIWA
TAF
KIWA 181720Z 1818/1918 VRB04KT P6SM FEW200
     FM190400 12004KT P6SM FEW200=



000
FTUS45 KPSR 181700
TAFBLH
TAF
KBLH 181720Z 1818/1918 VRB04KT P6SM SCT150 BKN200=



000
FTUS45 KPSR 181700
TAFPHX
TAF
KPHX 181720Z 1818/1918 VRB04KT P6SM FEW200
     FM182100 22005KT P6SM FEW100 SCT150 SCT200
     FM190000 30006KT P6SM FEW100 SCT150 SCT200
     FM190700 12004KT P6SM FEW200=



000
FTUS45 KPSR 181700
TAFIPL
TAF
KIPL 181720Z 1818/1918 33005KT P6SM FEW150 SCT200
     FM190200 27005KT P6SM FEW200=



000
FTUS45 KPSR 181400 AAA
TAFPHX
TAF AMD
KPHX 181450Z 1815/1912 12006KT P6SM FEW200
     FM182100 27005KT P6SM FEW100 SCT150 SCT200
     FM190600 10005KT P6SM FEW200=



000
FTUS45 KPSR 181400 AAA
TAFPHX
TAF AMD
KPHX 181450Z 1815/1912 12006KT P6SM FEW200
     FM182100 27005KT P6SM FEW100 SCT150 SCT200
     FM190600 10005KT P6SM FEW200=



000
FTUS45 KPSR 181100
TAFPHX
TAF
KPHX 181120Z 1812/1912 10005KT P6SM FEW200
     FM182100 27005KT P6SM FEW100 SCT150 SCT200
     FM190600 10005KT P6SM FEW200=



000
FTUS45 KPSR 181100
TAFIPL
TAF
KIPL 181120Z 1812/1912 26004KT P6SM SCT150 BKN200
     FM181800 35005KT P6SM FEW150 SCT200
     FM190100 26005KT P6SM FEW200=



000
FTUS45 KPSR 181100
TAFIPL
TAF
KIPL 181120Z 1812/1912 26004KT P6SM SCT150 BKN200
     FM181800 35005KT P6SM FEW150 SCT200
     FM190100 26005KT P6SM FEW200=



000
FTUS45 KPSR 181100
TAFBLH
TAF
KBLH 181120Z 1812/1912 VRB04KT P6SM SCT150 BKN200=



000
FTUS45 KPSR 181100
TAFIWA
TAF
KIWA 181120Z 1812/1912 11005KT P6SM FEW200
     FM182000 29005KT P6SM FEW100 SCT150 SCT200
     FM190400 11006KT P6SM FEW200
      AMD LTD TO CLD VIS AND WIND TIL 181300=



000
FTUS45 KPSR 181100
TAFBLH
TAF
KBLH 181120Z 1812/1912 VRB04KT P6SM SCT150 BKN200=



000
FTUS45 KPSR 181100
TAFIWA
TAF
KIWA 181120Z 1812/1912 11005KT P6SM FEW200
     FM182000 29005KT P6SM FEW100 SCT150 SCT200
     FM190400 11006KT P6SM FEW200
      AMD LTD TO CLD VIS AND WIND TIL 181300=



000
FTUS45 KPSR 181100
TAFIWA
TAF
KIWA 181120Z 1812/1912 11005KT P6SM FEW200
     FM182000 29005KT P6SM FEW100 SCT150 SCT200
     FM190400 11006KT P6SM FEW200
      AMD LTD TO CLD VIS AND WIND TIL 181300=



000
FTUS45 KPSR 181100
TAFPHX
TAF
KPHX 181120Z 1812/1912 10005KT P6SM FEW200
     FM182100 27005KT P6SM FEW100 SCT150 SCT200
     FM190600 10005KT P6SM FEW200=



000
FTUS45 KPSR 180800 AAA
TAFPHX
TAF AMD
KPHX 180858Z 1809/1906 10005KT P6SM FEW110 SCT150 SCT250
     FM182100 27005KT P6SM FEW100 SCT150 SCT200=



000
FTUS45 KPSR 180500
TAFIWA
TAF
KIWA 180520Z 1806/1906 11005KT P6SM FEW110 SCT150 SCT250
     FM182000 29005KT P6SM FEW100 SCT150 SCT200
      AMD LTD TO CLD VIS AND WIND TIL 181300=



000
FTUS45 KPSR 180500
TAFPHX
TAF
KPHX 180520Z 1806/1906 10005KT P6SM FEW110 SCT150 SCT250
     FM182100 27005KT P6SM FEW100 SCT150 SCT200=



000
FTUS45 KPSR 180500
TAFBLH
TAF
KBLH 180520Z 1806/1906 23004KT P6SM SCT120 SCT250
     FM181100 VRB04KT P6SM SCT120 SCT200=



000
FTUS45 KPSR 180500
TAFIWA
TAF
KIWA 180520Z 1806/1906 11005KT P6SM FEW110 SCT150 SCT250
     FM182000 29005KT P6SM FEW100 SCT150 SCT200
      AMD LTD TO CLD VIS AND WIND TIL 181300=



000
FTUS45 KPSR 180500
TAFIPL
TAF
KIPL 180520Z 1806/1906 26007KT P6SM FEW120 SCT250
     FM181800 35005KT P6SM FEW120 SCT200
     FM190100 26005KT P6SM FEW200=



000
FTUS45 KPSR 180300 AAA
TAFPHX
TAF AMD
KPHX 180302Z 1803/1824 26005KT P6SM FEW100 SCT150 BKN200
     FM180500 10005KT P6SM FEW150 SCT250
     FM182100 23005KT P6SM FEW110 SCT200=



000
FTUS45 KPSR 172300 RRA
TAFIWA
TAF
KIWA 172340Z 1800/1824 30008KT P6SM FEW100 SCT150 SCT200
     FM180300 11005KT P6SM FEW150 SCT250
     FM181900 27005KT P6SM FEW110 SCT200
      AMD LTD TO CLD VIS AND WIND 1803/1813=



000
FTUS45 KPSR 172300 RRA
TAFIPL
TAF
KIPL 172340Z 1800/1824 VRB04KT P6SM FEW120 SCT200
     FM180100 26007KT P6SM FEW250
     FM181800 34005KT P6SM SKC=



000
FTUS45 KPSR 172300 RRA
TAFBLH
TAF
KBLH 172340Z 1800/1824 17005KT P6SM FEW120 SCT200
     FM180200 VRB04KT P6SM FEW120 SCT250=



000
FTUS45 KPSR 172300 RRA
TAFPHX
TAF
KPHX 172340Z 1800/1824 28006KT P6SM FEW100 SCT150 SCT200
     FM180500 10005KT P6SM FEW150 SCT250
     FM182000 23005KT P6SM FEW110 SCT200=



000
FTUS45 KPSR 172300 RRA
TAFIWA
TAF
KIWA 172340Z 1800/1824 30008KT P6SM FEW100 SCT150 SCT200
     FM180300 11005KT P6SM FEW150 SCT250
     FM181900 27005KT P6SM FEW110 SCT200
      AMD LTD TO CLD VIS AND WIND 1803/1813=



000
FTUS45 KPSR 172300 RRA
TAFIWA
TAF
KIWA 172340Z 1800/1824 30008KT P6SM FEW100 SCT150 SCT200
     FM180300 11005KT P6SM FEW150 SCT250
     FM181900 27005KT P6SM FEW110 SCT200
      AMD LTD TO CLD VIS AND WIND 1803/1813=



000
FTUS45 KPSR 172300 RRA
TAFPHX
TAF
KPHX 172340Z 1800/1824 28006KT P6SM FEW100 SCT150 SCT200
     FM180500 10005KT P6SM FEW150 SCT250
     FM182000 23005KT P6SM FEW110 SCT200=



000
FTUS45 KPSR 172300 RRA
TAFBLH
TAF
KBLH 172340Z 1800/1824 17005KT P6SM FEW120 SCT200
     FM180200 VRB04KT P6SM FEW120 SCT250=



000
FTUS45 KPSR 172300 RRA
TAFIPL
TAF
KIPL 172340Z 1800/1824 VRB04KT P6SM FEW120 SCT200
     FM180100 26007KT P6SM FEW250
     FM181800 34005KT P6SM SKC=



000
FTUS45 KPSR 172300 RRA
TAFIWA
TAF
KIWA 172340Z 1800/1824 30008KT P6SM FEW100 SCT150 SCT200
     FM180300 11005KT P6SM FEW150 SCT250
     FM181900 27005KT P6SM FEW110 SCT200
      AMD LTD TO CLD VIS AND WIND 1803/1813=



000
FTUS45 KPSR 172000 AAA
TAFPHX
TAF AMD
KPHX 172043Z 1721/1818 VRB05KT P6SM FEW150 SCT200 SCT250
      TEMPO 1722/1802 26005KT FEW100 SCT150 SCT250
     FM180500 10005KT P6SM FEW150 SCT250=



000
FTUS45 KPSR 172000 AAA
TAFPHX
TAF AMD
KPHX 172043Z 1721/1818 VRB05KT P6SM FEW150 SCT200 SCT250
      TEMPO 1722/1802 26005KT FEW100 SCT150 SCT250
     FM180500 10005KT P6SM FEW150 SCT250=



000
FTUS45 KPSR 171700
TAFPHX
TAF
KPHX 171720Z 1718/1818 11005KT P6SM SCT160 BKN200
     FM172000 VRB04KT P6SM FEW110 SCT150 SCT200
      TEMPO 1722/1802 26005KT
     FM180500 10005KT P6SM FEW150 SCT250=



000
FTUS45 KPSR 171700
TAFIPL
TAF
KIPL 171720Z 1718/1818 VRB04KT P6SM FEW120 SCT200
     FM180200 26008KT P6SM FEW160 SCT250=



000
FTUS45 KPSR 171700
TAFIWA
TAF
KIWA 171720Z 1718/1818 VRB04KT P6SM SCT100 SCT150 BKN200
     FM172200 26005KT P6SM FEW110 SCT200
     FM180400 11005KT P6SM FEW150 SCT250=



000
FTUS45 KPSR 171700
TAFBLH
TAF
KBLH 171720Z 1718/1818 17005KT P6SM FEW120 SCT150 BKN200
     FM180200 VRB04KT P6SM FEW150 SCT250
      TEMPO 1802/1806 23005KT=



000
FTUS45 KPSR 171400 AAA
TAFPHX
TAF AMD
KPHX 171457Z 1715/1812 VRB04KT P6SM SCT160 BKN200
      TEMPO 1715/1719 10005KT
     FM171900 VRB04KT P6SM SCT110 SCT150 BKN200
     FM172200 26005KT P6SM FEW110 SCT200
     FM180500 10005KT P6SM FEW200=



000
FTUS45 KPSR 171100
TAFIWA
TAF
KIWA 171126Z 1712/1812 12006KT P6SM FEW150 BKN200
     FM171800 VRB04KT P6SM SCT110 SCT150 BKN200
     FM172200 26005KT P6SM FEW110 SCT200
     FM180300 11005KT P6SM FEW200
      AMD LTD TO CLD VIS AND WIND TIL 171300=



000
FTUS45 KPSR 171100
TAFIPL
TAF
KIPL 171126Z 1712/1812 VRB04KT P6SM SCT120 BKN200
     FM180200 26006KT P6SM SCT200=



000
FTUS45 KPSR 171100
TAFBLH
TAF
KBLH 171126Z 1712/1812 VRB04KT P6SM SCT150 BKN200
     FM171700 17005KT P6SM SCT120 BKN200
     FM180200 VRB04KT P6SM SCT200=



000
FTUS45 KPSR 171100
TAFPHX
TAF
KPHX 171126Z 1712/1812 10006KT P6SM FEW150 BKN200
     FM171900 VRB04KT P6SM SCT110 SCT150 BKN200
     FM172200 26005KT P6SM FEW110 SCT200
     FM180500 10005KT P6SM FEW200=



000
FTUS45 KPSR 171100
TAFIWA
TAF
KIWA 171126Z 1712/1812 12006KT P6SM FEW150 BKN200
     FM171800 VRB04KT P6SM SCT110 SCT150 BKN200
     FM172200 26005KT P6SM FEW110 SCT200
     FM180300 11005KT P6SM FEW200
      AMD LTD TO CLD VIS AND WIND TIL 171300=



000
FTUS45 KPSR 171100
TAFIWA
TAF
KIWA 171126Z 1712/1812 12006KT P6SM FEW150 BKN200
     FM171800 VRB04KT P6SM SCT110 SCT150 BKN200
     FM172200 26005KT P6SM FEW110 SCT200
     FM180300 11005KT P6SM FEW200
      AMD LTD TO CLD VIS AND WIND TIL 171300=



000
FTUS45 KPSR 171100
TAFBLH
TAF
KBLH 171126Z 1712/1812 VRB04KT P6SM SCT150 BKN200
     FM171700 17005KT P6SM SCT120 BKN200
     FM180200 VRB04KT P6SM SCT200=



000
FTUS45 KPSR 171100
TAFIPL
TAF
KIPL 171126Z 1712/1812 VRB04KT P6SM SCT120 BKN200
     FM180200 26006KT P6SM SCT200=



000
FTUS45 KPSR 171100
TAFPHX
TAF
KPHX 171126Z 1712/1812 10006KT P6SM FEW150 BKN200
     FM171900 VRB04KT P6SM SCT110 SCT150 BKN200
     FM172200 26005KT P6SM FEW110 SCT200
     FM180500 10005KT P6SM FEW200=



000
FTUS45 KPSR 171100
TAFIWA
TAF
KIWA 171126Z 1712/1812 12006KT P6SM FEW150 BKN200
     FM171800 VRB04KT P6SM SCT110 SCT150 BKN200
     FM172200 26005KT P6SM FEW110 SCT200
     FM180300 11005KT P6SM FEW200
      AMD LTD TO CLD VIS AND WIND TIL 171300=



    US Dept of Commerce
    National Oceanic and Atmospheric Administration
    National Weather Service
    1325 East West Highway
    Silver Spring, MD 20910
    Page Author: NWS Internet Services Team
Disclaimer
Information Quality
Credits
Glossary
Privacy Policy
Freedom of Information Act (FOIA)
About Us
Career Opportunities